Terminal Aerodrome Forecast
Issued by NWS

Home | Current Version | Previous Version | Text Only | Print | Product List | Glossary On
Versions: 1 2 3 4 5 6 7 8 9 10 11 12 13 14 15 16 17 18 19 20
000
FTAK31 PAFA 232357 CCA
TAFASC
TAF COR
PASC 232357Z 2400/2424 35007KT 6SM -SHRA BR BKN009 OVC015
      TEMPO 2403/2406 4SM BR OVC005
     FM240600 34004KT 4SM BR OVC004
     FM241200 31003KT 1SM -DZ BR OVC003
     FM242000 33005KT 4SM BR OVC007=

USA.gov is the U.S. government's official web portal to all federal, state and local government web resources and services.